Terminal Aerodrome Forecast
Issued by NWS

Home | Current Version | Previous Version | Graphics & Text | Print | Product List | Glossary On
Versions: 1 2 3 4 5 6 7 8 9 10 11 12 13 14 15
000
FTUS43 KMPX 292330
TAFRWF
TAF
KRWF 292330Z 3000/3024 30012KT P6SM SKC
     FM300500 VRB03KT P6SM SKC
     FM301500 15008KT P6SM FEW250
     FM302200 15011KT P6SM VCTS BKN070CB BKN200=

USA.gov is the U.S. government's official web portal to all federal, state and local government web resources and services.